sensor_id;sensor_type;location;lat;lon;timestamp;P1;durP1;ratioP1;P2;durP2;ratioP2
19043;SDS011;9654;52.302;8.120;2023-07-20T00:01:44;2.03;;;1.80;;
19043;SDS011;9654;52.302;8.120;2023-07-20T00:04:12;2.93;;;1.50;;
19043;SDS011;9654;52.302;8.120;2023-07-20T00:06:39;1.53;;;1.43;;
19043;SDS011;9654;52.302;8.120;2023-07-20T00:09:06;1.60;;;1.50;;
19043;SDS011;9654;52.302;8.120;2023-07-20T00:11:35;1.80;;;1.70;;
19043;SDS011;9654;52.302;8.120;2023-07-20T00:14:03;1.80;;;1.70;;
19043;SDS011;9654;52.302;8.120;2023-07-20T00:16:30;1.80;;;1.70;;
19043;SDS011;9654;52.302;8.120;2023-07-20T00:18:57;1.73;;;1.63;;
19043;SDS011;9654;52.302;8.120;2023-07-20T00:21:24;2.00;;;1.90;;
19043;SDS011;9654;52.302;8.120;2023-07-20T00:23:51;2.20;;;2.00;;
19043;SDS011;9654;52.302;8.120;2023-07-20T00:26:18;2.23;;;1.70;;
19043;SDS011;9654;52.302;8.120;2023-07-20T00:28:46;1.60;;;1.50;;
19043;SDS011;9654;52.302;8.120;2023-07-20T00:31:14;2.10;;;1.60;;
19043;SDS011;9654;52.302;8.120;2023-07-20T00:33:41;2.27;;;1.60;;
19043;SDS011;9654;52.302;8.120;2023-07-20T00:36:08;1.63;;;1.53;;
19043;SDS011;9654;52.302;8.120;2023-07-20T00:38:35;5.97;;;2.30;;
19043;SDS011;9654;52.302;8.120;2023-07-20T00:41:02;1.70;;;1.60;;
19043;SDS011;9654;52.302;8.120;2023-07-20T00:43:28;1.50;;;1.40;;
19043;SDS011;9654;52.302;8.120;2023-07-20T00:45:56;1.37;;;1.30;;
19043;SDS011;9654;52.302;8.120;2023-07-20T00:48:23;1.57;;;1.47;;
19043;SDS011;9654;52.302;8.120;2023-07-20T00:50:50;1.60;;;1.50;;
19043;SDS011;9654;52.302;8.120;2023-07-20T00:53:17;1.27;;;1.17;;
19043;SDS011;9654;52.302;8.120;2023-07-20T00:55:45;4.90;;;1.60;;
19043;SDS011;9654;52.302;8.120;2023-07-20T00:58:12;1.77;;;1.63;;
19043;SDS011;9654;52.302;8.120;2023-07-20T01:00:39;1.80;;;1.70;;
19043;SDS011;9654;52.302;8.120;2023-07-20T01:03:07;2.70;;;1.97;;
19043;SDS011;9654;52.302;8.120;2023-07-20T01:05:36;2.80;;;2.13;;
19043;SDS011;9654;52.302;8.120;2023-07-20T01:08:07;2.37;;;2.03;;
19043;SDS011;9654;52.302;8.120;2023-07-20T01:10:43;5.07;;;2.53;;
19043;SDS011;9654;52.302;8.120;2023-07-20T01:13:15;2.77;;;2.50;;
19043;SDS011;9654;52.302;8.120;2023-07-20T01:15:48;4.80;;;2.70;;
19043;SDS011;9654;52.302;8.120;2023-07-20T01:18:17;2.73;;;2.07;;
19043;SDS011;9654;52.302;8.120;2023-07-20T01:20:44;7.37;;;3.13;;
19043;SDS011;9654;52.302;8.120;2023-07-20T01:26:27;3.43;;;2.90;;
19043;SDS011;9654;52.302;8.120;2023-07-20T01:29:13;3.80;;;3.10;;
19043;SDS011;9654;52.302;8.120;2023-07-20T01:31:49;2.70;;;2.50;;
19043;SDS011;9654;52.302;8.120;2023-07-20T01:34:19;4.40;;;2.70;;
19043;SDS011;9654;52.302;8.120;2023-07-20T01:36:47;2.33;;;2.23;;
19043;SDS011;9654;52.302;8.120;2023-07-20T01:39:18;2.57;;;2.37;;
19043;SDS011;9654;52.302;8.120;2023-07-20T01:41:46;1.97;;;1.87;;
19043;SDS011;9654;52.302;8.120;2023-07-20T01:44:13;4.67;;;3.07;;
19043;SDS011;9654;52.302;8.120;2023-07-20T01:46:40;3.03;;;2.50;;
19043;SDS011;9654;52.302;8.120;2023-07-20T01:49:08;2.60;;;2.13;;
19043;SDS011;9654;52.302;8.120;2023-07-20T01:51:35;3.23;;;2.93;;
19043;SDS011;9654;52.302;8.120;2023-07-20T01:54:02;3.40;;;2.60;;
19043;SDS011;9654;52.302;8.120;2023-07-20T01:56:28;3.30;;;3.00;;
19043;SDS011;9654;52.302;8.120;2023-07-20T01:58:55;4.20;;;3.43;;
19043;SDS011;9654;52.302;8.120;2023-07-20T02:01:22;4.40;;;4.00;;
19043;SDS011;9654;52.302;8.120;2023-07-20T02:03:49;5.00;;;4.50;;
19043;SDS011;9654;52.302;8.120;2023-07-20T02:06:17;4.23;;;3.60;;
19043;SDS011;9654;52.302;8.120;2023-07-20T02:08:44;4.20;;;3.87;;
19043;SDS011;9654;52.302;8.120;2023-07-20T02:11:10;4.93;;;3.93;;
19043;SDS011;9654;52.302;8.120;2023-07-20T02:13:37;6.13;;;4.07;;
19043;SDS011;9654;52.302;8.120;2023-07-20T02:16:04;7.73;;;4.67;;
19043;SDS011;9654;52.302;8.120;2023-07-20T02:18:31;7.30;;;5.20;;
19043;SDS011;9654;52.302;8.120;2023-07-20T02:20:58;5.50;;;5.00;;
19043;SDS011;9654;52.302;8.120;2023-07-20T02:23:26;5.97;;;5.43;;
19043;SDS011;9654;52.302;8.120;2023-07-20T02:25:53;6.73;;;6.03;;
19043;SDS011;9654;52.302;8.120;2023-07-20T02:28:19;6.60;;;6.00;;
19043;SDS011;9654;52.302;8.120;2023-07-20T02:30:46;8.03;;;6.40;;
19043;SDS011;9654;52.302;8.120;2023-07-20T02:33:25;7.50;;;6.63;;
19043;SDS011;9654;52.302;8.120;2023-07-20T02:35:52;7.30;;;6.60;;
19043;SDS011;9654;52.302;8.120;2023-07-20T02:38:19;8.50;;;6.30;;
19043;SDS011;9654;52.302;8.120;2023-07-20T02:40:47;6.77;;;6.03;;
19043;SDS011;9654;52.302;8.120;2023-07-20T02:43:13;7.83;;;6.63;;
19043;SDS011;9654;52.302;8.120;2023-07-20T02:45:40;6.87;;;6.27;;
19043;SDS011;9654;52.302;8.120;2023-07-20T02:48:07;8.50;;;6.53;;
19043;SDS011;9654;52.302;8.120;2023-07-20T02:50:34;8.43;;;5.90;;
19043;SDS011;9654;52.302;8.120;2023-07-20T02:53:01;8.80;;;6.43;;
19043;SDS011;9654;52.302;8.120;2023-07-20T02:55:28;8.57;;;6.80;;
19043;SDS011;9654;52.302;8.120;2023-07-20T02:57:56;8.07;;;7.23;;
19043;SDS011;9654;52.302;8.120;2023-07-20T03:00:23;9.77;;;7.77;;
19043;SDS011;9654;52.302;8.120;2023-07-20T03:02:50;11.10;;;7.87;;
19043;SDS011;9654;52.302;8.120;2023-07-20T03:05:20;9.87;;;8.60;;
19043;SDS011;9654;52.302;8.120;2023-07-20T03:07:47;11.47;;;7.40;;
19043;SDS011;9654;52.302;8.120;2023-07-20T03:10:15;9.63;;;8.27;;
19043;SDS011;9654;52.302;8.120;2023-07-20T03:12:42;10.17;;;8.27;;
19043;SDS011;9654;52.302;8.120;2023-07-20T03:15:10;13.40;;;8.40;;
19043;SDS011;9654;52.302;8.120;2023-07-20T03:17:37;9.07;;;7.93;;
19043;SDS011;9654;52.302;8.120;2023-07-20T03:20:04;9.23;;;8.33;;
19043;SDS011;9654;52.302;8.120;2023-07-20T03:22:35;13.10;;;8.57;;
19043;SDS011;9654;52.302;8.120;2023-07-20T03:25:02;8.70;;;7.80;;
19043;SDS011;9654;52.302;8.120;2023-07-20T03:27:30;7.93;;;6.67;;
19043;SDS011;9654;52.302;8.120;2023-07-20T03:29:57;8.97;;;7.47;;
19043;SDS011;9654;52.302;8.120;2023-07-20T03:32:25;8.13;;;7.33;;
19043;SDS011;9654;52.302;8.120;2023-07-20T03:34:52;7.93;;;7.13;;
19043;SDS011;9654;52.302;8.120;2023-07-20T03:37:18;7.97;;;7.17;;
19043;SDS011;9654;52.302;8.120;2023-07-20T03:39:45;9.90;;;7.47;;
19043;SDS011;9654;52.302;8.120;2023-07-20T03:42:15;9.77;;;7.80;;
19043;SDS011;9654;52.302;8.120;2023-07-20T03:44:42;7.63;;;6.93;;
19043;SDS011;9654;52.302;8.120;2023-07-20T03:47:08;7.30;;;6.17;;
19043;SDS011;9654;52.302;8.120;2023-07-20T03:49:36;6.90;;;6.27;;
19043;SDS011;9654;52.302;8.120;2023-07-20T03:52:04;10.70;;;6.87;;
19043;SDS011;9654;52.302;8.120;2023-07-20T03:54:31;8.90;;;6.83;;
19043;SDS011;9654;52.302;8.120;2023-07-20T03:56:57;10.77;;;6.93;;
19043;SDS011;9654;52.302;8.120;2023-07-20T03:59:25;7.63;;;6.43;;
19043;SDS011;9654;52.302;8.120;2023-07-20T04:01:52;7.00;;;6.10;;
19043;SDS011;9654;52.302;8.120;2023-07-20T04:04:19;15.07;;;7.63;;
19043;SDS011;9654;52.302;8.120;2023-07-20T04:06:47;9.60;;;6.07;;
19043;SDS011;9654;52.302;8.120;2023-07-20T04:09:14;6.50;;;5.90;;
19043;SDS011;9654;52.302;8.120;2023-07-20T04:11:40;5.60;;;5.07;;
19043;SDS011;9654;52.302;8.120;2023-07-20T04:14:07;5.73;;;5.13;;
19043;SDS011;9654;52.302;8.120;2023-07-20T04:16:34;5.67;;;4.40;;
19043;SDS011;9654;52.302;8.120;2023-07-20T04:19:01;5.33;;;4.83;;
19043;SDS011;9654;52.302;8.120;2023-07-20T04:21:28;5.10;;;4.40;;
19043;SDS011;9654;52.302;8.120;2023-07-20T04:23:56;6.17;;;5.10;;
19043;SDS011;9654;52.302;8.120;2023-07-20T04:26:23;5.97;;;4.13;;
19043;SDS011;9654;52.302;8.120;2023-07-20T04:28:50;5.20;;;4.33;;
19043;SDS011;9654;52.302;8.120;2023-07-20T04:31:17;5.23;;;4.80;;
19043;SDS011;9654;52.302;8.120;2023-07-20T04:33:44;5.17;;;4.70;;
19043;SDS011;9654;52.302;8.120;2023-07-20T04:36:11;5.17;;;4.60;;
19043;SDS011;9654;52.302;8.120;2023-07-20T04:38:39;6.20;;;4.93;;
19043;SDS011;9654;52.302;8.120;2023-07-20T04:41:08;6.67;;;4.73;;
19043;SDS011;9654;52.302;8.120;2023-07-20T04:43:37;6.27;;;5.63;;
19043;SDS011;9654;52.302;8.120;2023-07-20T04:46:07;6.13;;;5.53;;
19043;SDS011;9654;52.302;8.120;2023-07-20T04:48:34;7.63;;;5.53;;
19043;SDS011;9654;52.302;8.120;2023-07-20T04:51:01;6.30;;;5.70;;
19043;SDS011;9654;52.302;8.120;2023-07-20T04:53:28;8.23;;;6.57;;
19043;SDS011;9654;52.302;8.120;2023-07-20T04:55:56;6.63;;;6.03;;
19043;SDS011;9654;52.302;8.120;2023-07-20T04:58:24;6.00;;;5.50;;
19043;SDS011;9654;52.302;8.120;2023-07-20T05:00:51;6.00;;;5.33;;
19043;SDS011;9654;52.302;8.120;2023-07-20T05:03:17;8.03;;;6.03;;
19043;SDS011;9654;52.302;8.120;2023-07-20T05:05:44;6.33;;;5.73;;
19043;SDS011;9654;52.302;8.120;2023-07-20T05:08:12;6.23;;;5.33;;
19043;SDS011;9654;52.302;8.120;2023-07-20T05:10:39;9.83;;;5.33;;
19043;SDS011;9654;52.302;8.120;2023-07-20T05:13:05;7.73;;;5.87;;
19043;SDS011;9654;52.302;8.120;2023-07-20T05:15:34;7.43;;;5.73;;
19043;SDS011;9654;52.302;8.120;2023-07-20T05:18:01;7.10;;;5.20;;
19043;SDS011;9654;52.302;8.120;2023-07-20T05:20:27;5.70;;;5.13;;
19043;SDS011;9654;52.302;8.120;2023-07-20T05:22:54;4.73;;;4.30;;
19043;SDS011;9654;52.302;8.120;2023-07-20T05:25:21;6.10;;;4.70;;
19043;SDS011;9654;52.302;8.120;2023-07-20T05:27:48;5.30;;;4.80;;
19043;SDS011;9654;52.302;8.120;2023-07-20T05:30:15;5.57;;;5.07;;
19043;SDS011;9654;52.302;8.120;2023-07-20T05:32:44;5.30;;;4.80;;
19043;SDS011;9654;52.302;8.120;2023-07-20T05:35:12;6.17;;;5.57;;
19043;SDS011;9654;52.302;8.120;2023-07-20T05:37:40;5.50;;;5.10;;
19043;SDS011;9654;52.302;8.120;2023-07-20T05:40:07;6.70;;;5.10;;
19043;SDS011;9654;52.302;8.120;2023-07-20T05:42:37;5.90;;;5.30;;
19043;SDS011;9654;52.302;8.120;2023-07-20T05:45:04;6.07;;;5.47;;
19043;SDS011;9654;52.302;8.120;2023-07-20T05:47:32;6.87;;;4.90;;
19043;SDS011;9654;52.302;8.120;2023-07-20T05:50:00;7.67;;;5.53;;
19043;SDS011;9654;52.302;8.120;2023-07-20T05:52:28;5.33;;;4.90;;
19043;SDS011;9654;52.302;8.120;2023-07-20T05:54:55;6.37;;;5.37;;
19043;SDS011;9654;52.302;8.120;2023-07-20T05:57:22;5.90;;;4.87;;
19043;SDS011;9654;52.302;8.120;2023-07-20T05:59:48;7.70;;;5.50;;
19043;SDS011;9654;52.302;8.120;2023-07-20T06:02:15;6.53;;;5.03;;
19043;SDS011;9654;52.302;8.120;2023-07-20T06:04:42;6.03;;;4.70;;
19043;SDS011;9654;52.302;8.120;2023-07-20T06:07:11;5.10;;;4.60;;
19043;SDS011;9654;52.302;8.120;2023-07-20T06:09:37;5.47;;;4.97;;
19043;SDS011;9654;52.302;8.120;2023-07-20T06:12:04;6.20;;;4.47;;
19043;SDS011;9654;52.302;8.120;2023-07-20T06:14:32;4.83;;;3.90;;
19043;SDS011;9654;52.302;8.120;2023-07-20T06:16:59;5.20;;;4.37;;
19043;SDS011;9654;52.302;8.120;2023-07-20T06:19:25;4.70;;;4.20;;
19043;SDS011;9654;52.302;8.120;2023-07-20T06:21:53;4.47;;;4.07;;
19043;SDS011;9654;52.302;8.120;2023-07-20T06:24:21;4.50;;;3.93;;
19043;SDS011;9654;52.302;8.120;2023-07-20T06:26:47;4.37;;;3.87;;
19043;SDS011;9654;52.302;8.120;2023-07-20T06:29:14;4.67;;;4.20;;
19043;SDS011;9654;52.302;8.120;2023-07-20T06:31:41;5.37;;;3.47;;
19043;SDS011;9654;52.302;8.120;2023-07-20T06:34:08;3.70;;;3.40;;
19043;SDS011;9654;52.302;8.120;2023-07-20T06:36:34;4.17;;;3.33;;
19043;SDS011;9654;52.302;8.120;2023-07-20T06:39:01;3.97;;;3.60;;
19043;SDS011;9654;52.302;8.120;2023-07-20T06:41:29;4.63;;;3.50;;
19043;SDS011;9654;52.302;8.120;2023-07-20T06:43:56;4.60;;;3.47;;
19043;SDS011;9654;52.302;8.120;2023-07-20T06:46:24;4.50;;;2.90;;
19043;SDS011;9654;52.302;8.120;2023-07-20T06:48:51;3.03;;;2.63;;
19043;SDS011;9654;52.302;8.120;2023-07-20T06:51:18;3.63;;;2.90;;
19043;SDS011;9654;52.302;8.120;2023-07-20T06:53:45;3.23;;;2.23;;
19043;SDS011;9654;52.302;8.120;2023-07-20T06:56:12;4.03;;;2.33;;
19043;SDS011;9654;52.302;8.120;2023-07-20T06:58:40;2.10;;;2.00;;
19043;SDS011;9654;52.302;8.120;2023-07-20T07:01:07;5.23;;;2.20;;
19043;SDS011;9654;52.302;8.120;2023-07-20T07:03:34;2.90;;;2.30;;
19043;SDS011;9654;52.302;8.120;2023-07-20T07:06:01;2.53;;;2.07;;
19043;SDS011;9654;52.302;8.120;2023-07-20T07:08:29;2.53;;;2.33;;
19043;SDS011;9654;52.302;8.120;2023-07-20T07:10:55;2.50;;;2.30;;
19043;SDS011;9654;52.302;8.120;2023-07-20T07:13:22;2.53;;;2.33;;
19043;SDS011;9654;52.302;8.120;2023-07-20T07:15:51;3.20;;;2.50;;
19043;SDS011;9654;52.302;8.120;2023-07-20T07:18:18;4.67;;;1.83;;
19043;SDS011;9654;52.302;8.120;2023-07-20T07:20:50;1.80;;;1.70;;
19043;SDS011;9654;52.302;8.120;2023-07-20T07:23:17;2.10;;;1.97;;
19043;SDS011;9654;52.302;8.120;2023-07-20T07:25:44;7.60;;;2.40;;
19043;SDS011;9654;52.302;8.120;2023-07-20T07:28:12;2.60;;;2.00;;
19043;SDS011;9654;52.302;8.120;2023-07-20T07:30:38;4.60;;;2.10;;
19043;SDS011;9654;52.302;8.120;2023-07-20T07:33:07;2.77;;;1.63;;
19043;SDS011;9654;52.302;8.120;2023-07-20T07:35:34;4.23;;;1.70;;
19043;SDS011;9654;52.302;8.120;2023-07-20T07:38:01;2.03;;;1.90;;
19043;SDS011;9654;52.302;8.120;2023-07-20T07:40:28;2.97;;;1.80;;
19043;SDS011;9654;52.302;8.120;2023-07-20T07:42:55;4.60;;;2.07;;
19043;SDS011;9654;52.302;8.120;2023-07-20T07:45:21;3.67;;;1.50;;
19043;SDS011;9654;52.302;8.120;2023-07-20T07:47:48;2.30;;;1.30;;
19043;SDS011;9654;52.302;8.120;2023-07-20T07:50:16;1.30;;;1.20;;
19043;SDS011;9654;52.302;8.120;2023-07-20T07:52:43;1.40;;;0.80;;
19043;SDS011;9654;52.302;8.120;2023-07-20T07:55:10;2.03;;;0.93;;
19043;SDS011;9654;52.302;8.120;2023-07-20T07:57:37;3.27;;;1.30;;
19043;SDS011;9654;52.302;8.120;2023-07-20T08:00:04;2.30;;;1.37;;
19043;SDS011;9654;52.302;8.120;2023-07-20T08:02:35;2.17;;;1.00;;
19043;SDS011;9654;52.302;8.120;2023-07-20T08:05:02;2.33;;;1.00;;
19043;SDS011;9654;52.302;8.120;2023-07-20T08:07:31;1.57;;;1.07;;
19043;SDS011;9654;52.302;8.120;2023-07-20T08:09:58;3.97;;;1.30;;
19043;SDS011;9654;52.302;8.120;2023-07-20T08:12:25;3.47;;;1.07;;
19043;SDS011;9654;52.302;8.120;2023-07-20T08:14:52;1.37;;;0.90;;
19043;SDS011;9654;52.302;8.120;2023-07-20T08:17:19;1.17;;;0.90;;
19043;SDS011;9654;52.302;8.120;2023-07-20T08:19:46;1.00;;;1.00;;
19043;SDS011;9654;52.302;8.120;2023-07-20T08:22:13;2.07;;;0.80;;
19043;SDS011;9654;52.302;8.120;2023-07-20T08:24:42;2.20;;;0.83;;
19043;SDS011;9654;52.302;8.120;2023-07-20T08:27:09;1.20;;;0.90;;
19043;SDS011;9654;52.302;8.120;2023-07-20T08:29:36;0.80;;;0.80;;
19043;SDS011;9654;52.302;8.120;2023-07-20T08:32:04;1.40;;;0.80;;
19043;SDS011;9654;52.302;8.120;2023-07-20T08:34:32;0.80;;;0.80;;
19043;SDS011;9654;52.302;8.120;2023-07-20T08:36:59;1.47;;;0.93;;
19043;SDS011;9654;52.302;8.120;2023-07-20T08:39:26;3.33;;;0.80;;
19043;SDS011;9654;52.302;8.120;2023-07-20T08:41:54;0.90;;;0.90;;
19043;SDS011;9654;52.302;8.120;2023-07-20T08:44:25;2.50;;;0.87;;
19043;SDS011;9654;52.302;8.120;2023-07-20T08:46:52;1.43;;;0.60;;
19043;SDS011;9654;52.302;8.120;2023-07-20T08:49:20;1.30;;;0.90;;
19043;SDS011;9654;52.302;8.120;2023-07-20T08:51:46;1.27;;;1.00;;
19043;SDS011;9654;52.302;8.120;2023-07-20T08:54:15;2.60;;;0.70;;
19043;SDS011;9654;52.302;8.120;2023-07-20T08:56:43;6.43;;;1.20;;
19043;SDS011;9654;52.302;8.120;2023-07-20T08:59:14;2.03;;;0.60;;
19043;SDS011;9654;52.302;8.120;2023-07-20T09:01:44;0.50;;;0.50;;
19043;SDS011;9654;52.302;8.120;2023-07-20T09:04:12;0.60;;;0.60;;
19043;SDS011;9654;52.302;8.120;2023-07-20T09:06:39;0.83;;;0.67;;
19043;SDS011;9654;52.302;8.120;2023-07-20T09:09:06;2.87;;;0.57;;
19043;SDS011;9654;52.302;8.120;2023-07-20T09:11:33;1.70;;;0.73;;
19043;SDS011;9654;52.302;8.120;2023-07-20T09:14:03;2.20;;;0.87;;
19043;SDS011;9654;52.302;8.120;2023-07-20T09:16:32;1.13;;;0.77;;
19043;SDS011;9654;52.302;8.120;2023-07-20T09:19:13;2.20;;;0.70;;
19043;SDS011;9654;52.302;8.120;2023-07-20T09:21:43;0.70;;;0.40;;
19043;SDS011;9654;52.302;8.120;2023-07-20T09:24:10;1.27;;;0.80;;
19043;SDS011;9654;52.302;8.120;2023-07-20T09:26:40;0.87;;;0.87;;
19043;SDS011;9654;52.302;8.120;2023-07-20T09:29:08;0.73;;;0.73;;
19043;SDS011;9654;52.302;8.120;2023-07-20T09:31:37;1.10;;;0.63;;
19043;SDS011;9654;52.302;8.120;2023-07-20T09:34:05;1.40;;;0.60;;
19043;SDS011;9654;52.302;8.120;2023-07-20T09:36:33;2.30;;;0.80;;
19043;SDS011;9654;52.302;8.120;2023-07-20T09:39:00;1.17;;;0.70;;
19043;SDS011;9654;52.302;8.120;2023-07-20T09:41:29;0.97;;;0.63;;
19043;SDS011;9654;52.302;8.120;2023-07-20T09:43:56;0.83;;;0.50;;
19043;SDS011;9654;52.302;8.120;2023-07-20T09:46:23;1.80;;;0.60;;
19043;SDS011;9654;52.302;8.120;2023-07-20T09:48:54;0.83;;;0.50;;
19043;SDS011;9654;52.302;8.120;2023-07-20T09:51:21;1.50;;;0.47;;
19043;SDS011;9654;52.302;8.120;2023-07-20T09:53:48;0.50;;;0.50;;
19043;SDS011;9654;52.302;8.120;2023-07-20T09:56:18;0.70;;;0.70;;
19043;SDS011;9654;52.302;8.120;2023-07-20T09:58:48;0.60;;;0.60;;
19043;SDS011;9654;52.302;8.120;2023-07-20T10:01:15;2.03;;;0.87;;
19043;SDS011;9654;52.302;8.120;2023-07-20T10:03:46;0.83;;;0.60;;
19043;SDS011;9654;52.302;8.120;2023-07-20T10:06:17;2.33;;;0.60;;
19043;SDS011;9654;52.302;8.120;2023-07-20T10:08:50;1.50;;;0.30;;
19043;SDS011;9654;52.302;8.120;2023-07-20T10:11:21;0.50;;;0.50;;
19043;SDS011;9654;52.302;8.120;2023-07-20T10:13:53;2.90;;;0.50;;
19043;SDS011;9654;52.302;8.120;2023-07-20T10:16:24;1.77;;;0.60;;
19043;SDS011;9654;52.302;8.120;2023-07-20T10:18:55;0.53;;;0.53;;
19043;SDS011;9654;52.302;8.120;2023-07-20T10:21:30;0.73;;;0.63;;
19043;SDS011;9654;52.302;8.120;2023-07-20T10:23:59;0.80;;;0.43;;
19043;SDS011;9654;52.302;8.120;2023-07-20T10:26:27;1.43;;;0.57;;
19043;SDS011;9654;52.302;8.120;2023-07-20T10:28:54;0.50;;;0.50;;
19043;SDS011;9654;52.302;8.120;2023-07-20T10:31:22;1.10;;;0.50;;
19043;SDS011;9654;52.302;8.120;2023-07-20T10:33:51;3.40;;;0.47;;
19043;SDS011;9654;52.302;8.120;2023-07-20T10:36:24;1.30;;;0.50;;
19043;SDS011;9654;52.302;8.120;2023-07-20T10:38:54;1.33;;;0.47;;
19043;SDS011;9654;52.302;8.120;2023-07-20T10:41:24;0.80;;;0.80;;
19043;SDS011;9654;52.302;8.120;2023-07-20T10:43:57;1.27;;;1.10;;
19043;SDS011;9654;52.302;8.120;2023-07-20T10:46:42;0.83;;;0.83;;
19043;SDS011;9654;52.302;8.120;2023-07-20T10:49:10;1.30;;;1.30;;
19043;SDS011;9654;52.302;8.120;2023-07-20T10:51:39;1.30;;;1.30;;
19043;SDS011;9654;52.302;8.120;2023-07-20T10:54:12;1.27;;;1.27;;
19043;SDS011;9654;52.302;8.120;2023-07-20T10:57:28;2.03;;;1.90;;
19043;SDS011;9654;52.302;8.120;2023-07-20T11:02:48;2.47;;;1.50;;
19043;SDS011;9654;52.302;8.120;2023-07-20T11:05:37;1.87;;;1.87;;
19043;SDS011;9654;52.302;8.120;2023-07-20T11:08:06;2.30;;;1.60;;
19043;SDS011;9654;52.302;8.120;2023-07-20T11:10:37;1.77;;;1.77;;
19043;SDS011;9654;52.302;8.120;2023-07-20T11:13:20;2.10;;;1.67;;
19043;SDS011;9654;52.302;8.120;2023-07-20T11:16:01;2.07;;;1.87;;
19043;SDS011;9654;52.302;8.120;2023-07-20T11:18:29;1.27;;;1.27;;
19043;SDS011;9654;52.302;8.120;2023-07-20T11:20:59;1.37;;;1.27;;
19043;SDS011;9654;52.302;8.120;2023-07-20T11:23:25;1.60;;;1.50;;
19043;SDS011;9654;52.302;8.120;2023-07-20T11:25:55;1.90;;;1.30;;
19043;SDS011;9654;52.302;8.120;2023-07-20T11:28:21;2.50;;;1.10;;
19043;SDS011;9654;52.302;8.120;2023-07-20T11:30:50;1.37;;;1.37;;
19043;SDS011;9654;52.302;8.120;2023-07-20T11:33:18;1.07;;;1.07;;
19043;SDS011;9654;52.302;8.120;2023-07-20T11:35:45;1.40;;;1.40;;
19043;SDS011;9654;52.302;8.120;2023-07-20T11:38:12;2.00;;;1.20;;
19043;SDS011;9654;52.302;8.120;2023-07-20T11:40:42;1.50;;;1.40;;
19043;SDS011;9654;52.302;8.120;2023-07-20T11:43:11;2.80;;;1.20;;
19043;SDS011;9654;52.302;8.120;2023-07-20T11:45:39;1.13;;;0.90;;
19043;SDS011;9654;52.302;8.120;2023-07-20T11:48:05;0.80;;;0.80;;
19043;SDS011;9654;52.302;8.120;2023-07-20T11:50:35;0.77;;;0.77;;
19043;SDS011;9654;52.302;8.120;2023-07-20T11:53:05;2.53;;;1.00;;
19043;SDS011;9654;52.302;8.120;2023-07-20T11:55:32;1.00;;;0.70;;
19043;SDS011;9654;52.302;8.120;2023-07-20T11:58:02;0.57;;;0.53;;
19043;SDS011;9654;52.302;8.120;2023-07-20T12:00:31;1.70;;;0.97;;
19043;SDS011;9654;52.302;8.120;2023-07-20T12:02:58;2.53;;;0.60;;
19043;SDS011;9654;52.302;8.120;2023-07-20T12:05:25;0.77;;;0.68;;
19043;SDS011;9654;52.302;8.120;2023-07-20T12:07:52;0.90;;;0.40;;
19043;SDS011;9654;52.302;8.120;2023-07-20T12:10:23;0.65;;;0.65;;
19043;SDS011;9654;52.302;8.120;2023-07-20T12:12:51;0.60;;;0.60;;
19043;SDS011;9654;52.302;8.120;2023-07-20T12:15:20;2.50;;;0.50;;
19043;SDS011;9654;52.302;8.120;2023-07-20T12:17:50;0.70;;;0.50;;
19043;SDS011;9654;52.302;8.120;2023-07-20T12:20:28;0.55;;;0.38;;
19043;SDS011;9654;52.302;8.120;2023-07-20T12:22:56;1.55;;;0.40;;
19043;SDS011;9654;52.302;8.120;2023-07-20T12:25:36;0.70;;;0.50;;
19043;SDS011;9654;52.302;8.120;2023-07-20T12:28:04;1.98;;;0.52;;
19043;SDS011;9654;52.302;8.120;2023-07-20T12:30:31;0.20;;;0.20;;
19043;SDS011;9654;52.302;8.120;2023-07-20T12:33:00;0.80;;;0.53;;
19043;SDS011;9654;52.302;8.120;2023-07-20T12:35:28;0.50;;;0.50;;
19043;SDS011;9654;52.302;8.120;2023-07-20T12:37:56;1.08;;;0.40;;
19043;SDS011;9654;52.302;8.120;2023-07-20T12:40:23;0.43;;;0.40;;
19043;SDS011;9654;52.302;8.120;2023-07-20T12:42:50;3.60;;;0.50;;
19043;SDS011;9654;52.302;8.120;2023-07-20T12:45:16;1.13;;;0.70;;
19043;SDS011;9654;52.302;8.120;2023-07-20T12:47:43;0.50;;;0.50;;
19043;SDS011;9654;52.302;8.120;2023-07-20T12:50:12;1.30;;;0.40;;
19043;SDS011;9654;52.302;8.120;2023-07-20T12:52:39;0.57;;;0.50;;
19043;SDS011;9654;52.302;8.120;2023-07-20T12:55:07;0.50;;;0.43;;
19043;SDS011;9654;52.302;8.120;2023-07-20T12:57:35;1.50;;;0.73;;
19043;SDS011;9654;52.302;8.120;2023-07-20T13:00:02;2.33;;;0.50;;
19043;SDS011;9654;52.302;8.120;2023-07-20T13:02:30;0.80;;;0.47;;
19043;SDS011;9654;52.302;8.120;2023-07-20T13:04:57;0.80;;;0.50;;
19043;SDS011;9654;52.302;8.120;2023-07-20T13:07:30;1.50;;;0.50;;
19043;SDS011;9654;52.302;8.120;2023-07-20T13:09:58;0.50;;;0.50;;
19043;SDS011;9654;52.302;8.120;2023-07-20T13:12:25;0.60;;;0.60;;
19043;SDS011;9654;52.302;8.120;2023-07-20T13:14:52;0.97;;;0.50;;
19043;SDS011;9654;52.302;8.120;2023-07-20T13:17:20;1.40;;;0.50;;
19043;SDS011;9654;52.302;8.120;2023-07-20T13:19:46;0.50;;;0.50;;
19043;SDS011;9654;52.302;8.120;2023-07-20T13:22:13;1.77;;;0.80;;
19043;SDS011;9654;52.302;8.120;2023-07-20T13:24:41;0.60;;;0.60;;
19043;SDS011;9654;52.302;8.120;2023-07-20T13:27:10;2.27;;;1.10;;
19043;SDS011;9654;52.302;8.120;2023-07-20T13:29:37;2.30;;;0.70;;
19043;SDS011;9654;52.302;8.120;2023-07-20T13:32:04;0.93;;;0.60;;
19043;SDS011;9654;52.302;8.120;2023-07-20T13:34:31;0.93;;;0.83;;
19043;SDS011;9654;52.302;8.120;2023-07-20T13:36:58;0.60;;;0.60;;
19043;SDS011;9654;52.302;8.120;2023-07-20T13:39:25;0.60;;;0.60;;
19043;SDS011;9654;52.302;8.120;2023-07-20T13:41:54;0.50;;;0.50;;
19043;SDS011;9654;52.302;8.120;2023-07-20T13:44:21;0.90;;;0.90;;
19043;SDS011;9654;52.302;8.120;2023-07-20T13:46:48;0.70;;;0.40;;
19043;SDS011;9654;52.302;8.120;2023-07-20T13:49:15;0.77;;;0.30;;
19043;SDS011;9654;52.302;8.120;2023-07-20T13:51:45;0.27;;;0.20;;
19043;SDS011;9654;52.302;8.120;2023-07-20T13:54:12;0.40;;;0.40;;
19043;SDS011;9654;52.302;8.120;2023-07-20T13:56:38;0.40;;;0.40;;
19043;SDS011;9654;52.302;8.120;2023-07-20T13:59:07;1.23;;;0.43;;
19043;SDS011;9654;52.302;8.120;2023-07-20T14:01:34;0.20;;;0.20;;
19043;SDS011;9654;52.302;8.120;2023-07-20T14:04:00;0.20;;;0.10;;
19043;SDS011;9654;52.302;8.120;2023-07-20T14:08:56;0.33;;;0.30;;
19043;SDS011;9654;52.302;8.120;2023-07-20T14:11:23;0.20;;;0.20;;
19043;SDS011;9654;52.302;8.120;2023-07-20T14:13:50;0.50;;;0.40;;
19043;SDS011;9654;52.302;8.120;2023-07-20T14:16:19;1.27;;;0.40;;
19043;SDS011;9654;52.302;8.120;2023-07-20T14:18:46;0.20;;;0.20;;
19043;SDS011;9654;52.302;8.120;2023-07-20T14:21:13;0.20;;;0.20;;
19043;SDS011;9654;52.302;8.120;2023-07-20T14:23:40;1.33;;;0.30;;
19043;SDS011;9654;52.302;8.120;2023-07-20T14:26:07;0.83;;;0.20;;
19043;SDS011;9654;52.302;8.120;2023-07-20T14:28:34;0.20;;;0.17;;
19043;SDS011;9654;52.302;8.120;2023-07-20T14:31:01;1.60;;;0.37;;
19043;SDS011;9654;52.302;8.120;2023-07-20T14:33:29;0.53;;;0.50;;
19043;SDS011;9654;52.302;8.120;2023-07-20T14:35:56;0.27;;;0.20;;
19043;SDS011;9654;52.302;8.120;2023-07-20T14:38:23;4.40;;;0.40;;
19043;SDS011;9654;52.302;8.120;2023-07-20T14:40:49;0.37;;;0.30;;
19043;SDS011;9654;52.302;8.120;2023-07-20T14:43:17;1.20;;;0.40;;
19043;SDS011;9654;52.302;8.120;2023-07-20T14:45:43;0.27;;;0.27;;
19043;SDS011;9654;52.302;8.120;2023-07-20T14:48:10;0.47;;;0.40;;
19043;SDS011;9654;52.302;8.120;2023-07-20T14:50:38;0.43;;;0.30;;
19043;SDS011;9654;52.302;8.120;2023-07-20T14:53:05;0.40;;;0.40;;
19043;SDS011;9654;52.302;8.120;2023-07-20T14:55:32;0.43;;;0.43;;
19043;SDS011;9654;52.302;8.120;2023-07-20T14:57:59;0.20;;;0.20;;
19043;SDS011;9654;52.302;8.120;2023-07-20T15:00:26;0.23;;;0.23;;
19043;SDS011;9654;52.302;8.120;2023-07-20T15:02:53;0.30;;;0.30;;
19043;SDS011;9654;52.302;8.120;2023-07-20T15:05:21;0.37;;;0.20;;
19043;SDS011;9654;52.302;8.120;2023-07-20T15:07:49;0.60;;;0.30;;
19043;SDS011;9654;52.302;8.120;2023-07-20T15:10:16;1.27;;;0.33;;
19043;SDS011;9654;52.302;8.120;2023-07-20T15:12:43;0.70;;;0.50;;
19043;SDS011;9654;52.302;8.120;2023-07-20T15:15:10;0.40;;;0.23;;